Terminal Aerodrome Forecast
Issued by NWS

Home | Current Version | Previous Version | Text Only | Print | Product List | Glossary On
Versions: 1 2 3 4 5 6 7 8 9 10 11 12 13 14 15 16 17 18
000
FTUS41 KRNK 311311 AAA
TAFLWB
TAF AMD
KLWB 311311Z 3113/0112 00000KT 3/4SM BR OVC001
      TEMPO 3113/3114 2SM BR SCT001
     FM311400 05003KT 5SM BR SCT250
     FM311500 03004KT P6SM SCT250
     FM311900 04004KT P6SM BKN050
     FM312300 00000KT P6SM SCT050
     FM010600 00000KT 1/2SM FG OVC001=

USA.gov is the U.S. government's official web portal to all federal, state and local government web resources and services.